createdAt,value
2023-03-12T00:01:23.994Z,63.59
2023-03-12T00:03:52.610Z,63.82
2023-03-12T00:06:21.697Z,64.22
2023-03-12T00:08:49.966Z,64.83
2023-03-12T00:11:20.304Z,64.64
2023-03-12T00:13:56.595Z,64.58
2023-03-12T00:16:25.172Z,64.45
2023-03-12T00:18:54.723Z,64.47
2023-03-12T00:21:24.212Z,64.42
2023-03-12T00:23:53.386Z,64.63
2023-03-12T00:26:22.203Z,65.11
2023-03-12T00:28:51.167Z,65.18
2023-03-12T00:31:29.466Z,65.01
2023-03-12T00:33:57.721Z,64.93
2023-03-12T00:36:29.127Z,64.96
2023-03-12T00:38:59.176Z,65.23
2023-03-12T00:41:28.165Z,65.26
2023-03-12T00:43:56.559Z,65.19
2023-03-12T00:46:25.095Z,65.55
2023-03-12T00:48:53.350Z,65.97
2023-03-12T00:51:21.574Z,66.70
2023-03-12T00:53:49.987Z,68.20
2023-03-12T00:56:18.411Z,68.44
2023-03-12T00:58:46.689Z,69.40
2023-03-12T01:01:14.966Z,69.05
2023-03-12T01:03:43.448Z,69.41
2023-03-12T01:06:12.781Z,69.11
2023-03-12T01:08:41.120Z,68.29
2023-03-12T01:11:14.644Z,68.48
2023-03-12T01:13:43.226Z,67.93
2023-03-12T01:16:11.596Z,67.39
2023-03-12T01:18:39.698Z,67.15
2023-03-12T01:21:08.092Z,67.05
2023-03-12T01:23:37.405Z,66.82
2023-03-12T01:26:05.520Z,66.37
2023-03-12T01:28:33.747Z,66.02
2023-03-12T01:31:14.358Z,65.51
2023-03-12T01:33:43.017Z,64.93
2023-03-12T01:36:20.856Z,64.96
2023-03-12T01:38:52.037Z,65.54
2023-03-12T01:41:21.708Z,66.27
2023-03-12T01:43:50.969Z,66.84
2023-03-12T01:46:30.037Z,67.17
2023-03-12T01:49:05.599Z,67.74
2023-03-12T01:51:42.920Z,68.04
2023-03-12T01:54:17.078Z,67.40
2023-03-12T01:56:46.974Z,67.01
2023-03-12T01:59:25.524Z,66.78
2023-03-12T02:01:53.806Z,66.34
2023-03-12T02:04:25.247Z,66.27
2023-03-12T02:07:10.096Z,65.96
2023-03-12T02:09:45.400Z,65.49
2023-03-12T02:12:15.184Z,65.16
2023-03-12T02:14:44.037Z,65.06
2023-03-12T02:17:12.653Z,65.48
2023-03-12T02:19:55.740Z,65.21
2023-03-12T02:22:24.918Z,64.86
2023-03-12T02:25:04.041Z,64.64
2023-03-12T02:27:36.441Z,64.39
2023-03-12T02:30:05.618Z,63.99
2023-03-12T02:32:38.510Z,64.38
2023-03-12T02:35:07.333Z,64.36
2023-03-12T02:37:35.595Z,64.19
2023-03-12T02:40:34.200Z,63.77
2023-03-12T02:43:06.162Z,63.71
2023-03-12T02:45:36.195Z,63.54
2023-03-12T02:48:08.503Z,63.84
2023-03-12T02:50:37.181Z,63.56
2023-03-12T02:53:05.604Z,63.70
2023-03-12T02:55:34.313Z,63.76
2023-03-12T02:58:02.710Z,63.27
2023-03-12T03:00:32.405Z,63.38
2023-03-12T03:03:01.817Z,63.65
2023-03-12T03:05:30.044Z,63.67
2023-03-12T03:07:58.514Z,63.97
2023-03-12T03:10:26.860Z,64.23
2023-03-12T03:12:55.337Z,63.67
2023-03-12T03:15:24.046Z,63.47
2023-03-12T03:17:52.290Z,63.13
2023-03-12T03:20:21.480Z,63.38
2023-03-12T03:22:49.757Z,63.52
2023-03-12T03:25:18.486Z,63.76
2023-03-12T03:27:46.918Z,63.80
2023-03-12T03:30:16.883Z,64.25
2023-03-12T03:32:47.144Z,64.06
2023-03-12T03:35:16.992Z,63.92
2023-03-12T03:37:45.441Z,64.11
2023-03-12T03:40:14.025Z,64.55
2023-03-12T03:42:42.362Z,64.52
2023-03-12T03:45:11.569Z,64.39
2023-03-12T03:47:40.626Z,64.14
2023-03-12T03:50:11.219Z,64.07
2023-03-12T03:52:39.500Z,64.03
2023-03-12T03:55:08.141Z,64.09
2023-03-12T03:57:36.272Z,64.39
2023-03-12T04:00:09.581Z,64.58
2023-03-12T04:02:41.806Z,64.61
2023-03-12T04:05:12.280Z,64.28
2023-03-12T04:07:41.072Z,64.21
2023-03-12T04:10:11.053Z,64.33
2023-03-12T04:12:39.400Z,64.31
2023-03-12T04:15:08.157Z,63.96
2023-03-12T04:17:36.619Z,64.08
2023-03-12T04:20:07.840Z,63.97
2023-03-12T04:22:36.149Z,63.81
2023-03-12T04:25:07.311Z,64.02
2023-03-12T04:27:36.133Z,63.98
2023-03-12T04:30:05.399Z,64.15
2023-03-12T04:32:34.307Z,64.26
2023-03-12T04:35:02.809Z,63.81
2023-03-12T04:37:34.070Z,63.82
2023-03-12T04:40:07.623Z,63.76
2023-03-12T04:42:36.381Z,63.27
2023-03-12T04:45:06.489Z,63.52
2023-03-12T04:47:36.020Z,63.54
2023-03-12T04:50:05.231Z,63.75
2023-03-12T04:52:33.716Z,63.82
2023-03-12T04:55:02.589Z,63.50
2023-03-12T04:57:30.988Z,63.49
2023-03-12T04:59:59.261Z,63.41
2023-03-12T05:02:27.860Z,63.36
2023-03-12T05:04:57.737Z,63.81
2023-03-12T05:07:26.516Z,63.96
2023-03-12T05:09:54.636Z,63.93
2023-03-12T05:12:22.996Z,63.74
2023-03-12T05:14:51.553Z,63.30
2023-03-12T05:17:20.329Z,63.40
2023-03-12T05:19:48.508Z,62.62
2023-03-12T05:22:17.716Z,63.25
2023-03-12T05:24:45.942Z,63.61
2023-03-12T05:27:14.338Z,62.28
2023-03-12T05:29:42.720Z,60.75
2023-03-12T05:32:11.264Z,58.32
2023-03-12T05:34:39.577Z,57.03
2023-03-12T05:37:07.936Z,55.42
2023-03-12T05:39:36.402Z,55.63
2023-03-12T05:42:05.749Z,52.48
2023-03-12T05:44:35.625Z,51.09
2023-03-12T05:47:03.961Z,49.26
2023-03-12T05:49:32.129Z,48.21
2023-03-12T05:52:00.275Z,47.65
2023-03-12T05:54:29.377Z,47.63
2023-03-12T05:56:57.831Z,48.22
2023-03-12T05:59:27.485Z,46.70
2023-03-12T06:01:57.135Z,47.23
2023-03-12T06:04:25.663Z,46.65
2023-03-12T06:06:54.662Z,45.78
2023-03-12T06:09:23.717Z,42.72
2023-03-12T06:11:52.220Z,41.80
2023-03-12T06:14:20.644Z,40.69
2023-03-12T06:16:49.363Z,41.03
2023-03-12T06:19:17.501Z,40.51
2023-03-12T06:21:48.817Z,38.87
2023-03-12T06:24:17.199Z,37.51
2023-03-12T06:26:49.557Z,36.39
2023-03-12T06:29:17.835Z,36.40
2023-03-12T06:31:47.328Z,35.45
2023-03-12T06:34:16.948Z,34.62
2023-03-12T06:36:45.288Z,34.38
2023-03-12T06:39:13.427Z,33.58
2023-03-12T06:41:41.937Z,32.48
2023-03-12T06:44:10.065Z,32.54
2023-03-12T06:46:38.270Z,32.46
2023-03-12T06:49:06.477Z,32.69
2023-03-12T06:51:34.618Z,31.42
2023-03-12T06:54:02.920Z,31.93
2023-03-12T06:56:31.711Z,31.20
2023-03-12T06:59:00.239Z,31.20
2023-03-12T07:01:28.451Z,31.41
2023-03-12T07:03:56.574Z,31.79
2023-03-12T07:06:25.114Z,31.12
2023-03-12T07:08:53.493Z,30.50
2023-03-12T07:11:21.798Z,29.59
2023-03-12T07:13:49.937Z,29.68
2023-03-12T07:16:18.276Z,29.07
2023-03-12T07:18:46.779Z,29.72
2023-03-12T07:21:22.664Z,30.62
2023-03-12T07:23:51.717Z,30.77
2023-03-12T07:26:20.691Z,29.68
2023-03-12T07:28:48.982Z,29.30
2023-03-12T07:31:17.153Z,28.63
2023-03-12T07:33:45.418Z,27.63
2023-03-12T07:36:13.888Z,27.07
2023-03-12T07:38:42.173Z,28.38
2023-03-12T07:41:10.459Z,28.10
2023-03-12T07:43:38.821Z,28.36
2023-03-12T07:46:07.059Z,27.69
2023-03-12T07:48:35.237Z,26.92
2023-03-12T07:51:03.731Z,26.21
2023-03-12T07:53:31.841Z,25.59
2023-03-12T07:56:00.058Z,25.54
2023-03-12T07:58:28.456Z,25.58
2023-03-12T08:00:57.177Z,25.18
2023-03-12T08:03:26.060Z,24.38
2023-03-12T08:06:03.069Z,24.61
2023-03-12T08:08:32.217Z,23.54
2023-03-12T08:11:00.776Z,23.01
2023-03-12T08:13:29.075Z,22.65
2023-03-12T08:15:57.572Z,22.04
2023-03-12T08:18:26.197Z,22.17
2023-03-12T08:20:55.311Z,22.52
2023-03-12T08:23:23.922Z,22.17
2023-03-12T08:25:53.437Z,21.89
2023-03-12T08:28:24.035Z,21.42
2023-03-12T08:30:55.210Z,21.10
2023-03-12T08:33:23.423Z,21.42
2023-03-12T08:35:51.907Z,21.08
2023-03-12T08:38:20.316Z,21.32
2023-03-12T08:40:55.445Z,20.69
2023-03-12T08:43:23.736Z,20.15
2023-03-12T08:45:56.703Z,21.01
2023-03-12T08:48:25.179Z,20.75
2023-03-12T08:50:56.510Z,20.86
2023-03-12T08:53:27.771Z,20.08
2023-03-12T08:55:56.845Z,19.56
2023-03-12T08:58:26.404Z,19.36
2023-03-12T09:00:55.368Z,18.60
2023-03-12T09:03:24.615Z,18.51
2023-03-12T09:06:03.858Z,18.46
2023-03-12T09:08:34.176Z,18.66
2023-03-12T09:11:03.027Z,18.16
2023-03-12T09:13:50.798Z,18.07
2023-03-12T09:16:19.611Z,17.20
2023-03-12T09:18:48.026Z,16.99
2023-03-12T09:21:16.144Z,16.48
2023-03-12T09:23:44.310Z,16.67
2023-03-12T09:26:13.903Z,17.15
2023-03-12T09:28:42.777Z,17.05
2023-03-12T09:31:11.185Z,16.77
2023-03-12T09:33:39.476Z,16.75
2023-03-12T09:36:07.795Z,16.90
2023-03-12T09:38:38.034Z,16.55
2023-03-12T09:41:13.243Z,16.36
2023-03-12T09:44:01.760Z,17.06
2023-03-12T09:46:46.933Z,16.89
2023-03-12T09:49:40.632Z,16.92
2023-03-12T09:52:21.161Z,16.77
2023-03-12T09:54:54.936Z,17.64
2023-03-12T09:57:26.317Z,17.72
2023-03-12T09:59:54.440Z,17.70
2023-03-12T10:02:47.222Z,17.09
2023-03-12T10:05:18.750Z,17.13
2023-03-12T10:07:57.862Z,16.87
2023-03-12T10:10:38.547Z,16.90
2023-03-12T10:13:28.386Z,17.54
2023-03-12T10:15:59.927Z,16.31
2023-03-12T10:18:48.418Z,15.81
2023-03-12T10:21:36.137Z,15.24
2023-03-12T10:24:29.111Z,14.80
2023-03-12T10:26:58.968Z,14.46
2023-03-12T10:29:30.738Z,14.84
2023-03-12T10:32:22.056Z,14.95
2023-03-12T10:35:00.959Z,15.16
2023-03-12T10:37:33.170Z,14.77
2023-03-12T10:40:02.307Z,14.75
2023-03-12T10:42:30.814Z,15.14
2023-03-12T10:45:11.018Z,15.55
2023-03-12T10:47:40.070Z,14.79
2023-03-12T10:50:31.002Z,14.82
2023-03-12T10:53:20.668Z,14.26
2023-03-12T10:56:11.917Z,15.17
2023-03-12T10:58:44.496Z,14.39
2023-03-12T11:01:15.884Z,14.49
2023-03-12T11:03:46.019Z,14.49
2023-03-12T11:06:26.825Z,14.72
2023-03-12T11:09:17.148Z,14.79
2023-03-12T11:11:48.650Z,16.45
2023-03-12T11:14:19.315Z,16.76
2023-03-12T11:16:47.897Z,16.50
2023-03-12T11:19:34.437Z,16.26
2023-03-12T11:22:05.769Z,15.68
2023-03-12T11:24:35.197Z,16.00
2023-03-12T11:27:20.143Z,15.54
2023-03-12T11:29:50.792Z,15.51
2023-03-12T11:32:29.481Z,14.91
2023-03-12T11:34:58.009Z,15.28
2023-03-12T11:37:47.701Z,17.08
2023-03-12T11:40:28.466Z,17.94
2023-03-12T11:43:42.863Z,18.56
2023-03-12T11:46:21.119Z,19.98
2023-03-12T11:49:01.129Z,21.04
2023-03-12T11:51:37.900Z,22.25
2023-03-12T11:54:24.085Z,23.28
2023-03-12T11:56:55.787Z,24.31
2023-03-12T11:59:47.450Z,25.36
2023-03-12T12:02:54.161Z,24.97
2023-03-12T12:05:56.953Z,26.70
2023-03-12T12:08:34.774Z,27.35
2023-03-12T12:11:02.988Z,26.88
2023-03-12T12:14:00.484Z,27.34
2023-03-12T12:16:29.197Z,27.60
2023-03-12T12:19:34.058Z,27.37
2023-03-12T12:22:43.125Z,27.59
2023-03-12T12:25:57.884Z,27.82
2023-03-12T12:29:03.870Z,28.54
2023-03-12T12:31:55.252Z,29.85
2023-03-12T12:34:34.507Z,29.07
2023-03-12T12:37:21.288Z,30.53
2023-03-12T12:40:14.234Z,30.08
2023-03-12T12:43:06.826Z,30.60
2023-03-12T12:45:40.918Z,30.95
2023-03-12T12:48:21.375Z,31.63
2023-03-12T12:50:52.328Z,32.46
2023-03-12T12:53:38.309Z,33.15
2023-03-12T12:56:19.617Z,32.42
2023-03-12T12:59:21.625Z,32.97
2023-03-12T13:01:52.882Z,32.10
2023-03-12T13:04:26.797Z,31.46
2023-03-12T13:07:27.161Z,31.46
2023-03-12T13:09:59.125Z,31.36
2023-03-12T13:12:29.926Z,30.82
2023-03-12T13:15:00.709Z,31.98
2023-03-12T13:17:34.529Z,31.50
2023-03-12T13:20:21.165Z,32.63
2023-03-12T13:23:01.636Z,33.66
2023-03-12T13:25:54.553Z,32.12
2023-03-12T13:28:41.577Z,31.42
2023-03-12T13:31:34.664Z,31.80
2023-03-12T13:34:41.347Z,30.74
2023-03-12T13:37:27.138Z,29.93
2023-03-12T13:39:55.427Z,31.22
2023-03-12T13:42:23.565Z,32.26
2023-03-12T13:44:53.574Z,34.41
2023-03-12T13:47:28.767Z,35.49
2023-03-12T13:50:00.794Z,34.89
2023-03-12T13:52:51.750Z,34.68
2023-03-12T13:55:26.054Z,34.37
2023-03-12T13:58:07.530Z,33.40
2023-03-12T14:00:41.670Z,35.54
2023-03-12T14:03:32.740Z,36.53
2023-03-12T14:06:08.088Z,35.82
2023-03-12T14:08:48.003Z,36.08
2023-03-12T14:11:26.543Z,35.25
2023-03-12T14:14:41.538Z,36.41
2023-03-12T14:17:24.296Z,35.31
2023-03-12T14:19:56.792Z,36.13
2023-03-12T14:22:25.725Z,35.39
2023-03-12T14:24:58.729Z,35.91
2023-03-12T14:27:31.755Z,35.92
2023-03-12T14:30:15.205Z,35.58
2023-03-12T14:32:46.109Z,36.00
2023-03-12T14:35:23.403Z,37.00
2023-03-12T14:38:03.212Z,37.21
2023-03-12T14:40:46.370Z,37.64
2023-03-12T14:43:20.905Z,37.35
2023-03-12T14:45:56.222Z,37.72
2023-03-12T14:48:36.595Z,37.99
2023-03-12T14:51:07.463Z,37.46
2023-03-12T14:53:37.852Z,37.36
2023-03-12T14:56:12.421Z,37.30
2023-03-12T14:58:47.223Z,37.08
2023-03-12T15:01:30.783Z,37.22
2023-03-12T15:04:14.766Z,37.77
2023-03-12T15:07:04.550Z,38.28
2023-03-12T15:09:35.817Z,38.21
2023-03-12T15:12:24.441Z,39.08
2023-03-12T15:15:07.108Z,39.28
2023-03-12T15:17:35.861Z,39.53
2023-03-12T15:20:09.563Z,38.98
2023-03-12T15:22:38.592Z,39.72
2023-03-12T15:25:36.426Z,40.08
2023-03-12T15:28:24.073Z,40.12
2023-03-12T15:31:14.425Z,40.52
2023-03-12T15:33:44.869Z,41.05
2023-03-12T15:36:17.445Z,41.02
2023-03-12T15:38:52.284Z,41.28
2023-03-12T15:41:43.096Z,41.18
2023-03-12T15:44:20.093Z,41.65
2023-03-12T15:46:50.585Z,41.11
2023-03-12T15:49:26.686Z,41.48
2023-03-12T15:52:00.728Z,41.51
2023-03-12T15:54:30.211Z,42.47
2023-03-12T15:57:24.204Z,42.26
2023-03-12T16:00:12.515Z,42.54
2023-03-12T16:02:50.596Z,42.25
2023-03-12T16:05:22.157Z,42.35
2023-03-12T16:07:50.626Z,42.52
2023-03-12T16:10:22.102Z,42.49
2023-03-12T16:12:52.931Z,42.77
2023-03-12T16:15:30.817Z,42.98
2023-03-12T16:17:59.070Z,42.95
2023-03-12T16:20:27.449Z,43.61
2023-03-12T16:22:55.682Z,43.65
2023-03-12T16:25:24.578Z,43.65
2023-03-12T16:27:58.110Z,44.32
2023-03-12T16:30:35.375Z,44.77
2023-03-12T16:33:08.953Z,44.46
2023-03-12T16:35:38.090Z,44.53
2023-03-12T16:38:07.468Z,45.05
2023-03-12T16:40:38.766Z,45.49
2023-03-12T16:43:14.714Z,45.24
2023-03-12T16:45:45.435Z,45.49
2023-03-12T16:48:19.893Z,45.30
2023-03-12T16:50:49.838Z,45.12
2023-03-12T16:53:18.971Z,45.50
2023-03-12T16:55:57.611Z,45.80
2023-03-12T16:58:28.146Z,46.28
2023-03-12T17:00:56.926Z,45.99
2023-03-12T17:03:35.629Z,46.19
2023-03-12T17:06:05.959Z,47.39
2023-03-12T17:08:36.220Z,47.39
2023-03-12T17:11:18.925Z,46.53
2023-03-12T17:13:50.682Z,47.75
2023-03-12T17:16:19.080Z,47.67
2023-03-12T17:18:47.334Z,47.85
2023-03-12T17:21:17.080Z,48.36
2023-03-12T17:23:47.950Z,48.30
2023-03-12T17:26:17.285Z,49.81
2023-03-12T17:28:45.783Z,50.17
2023-03-12T17:31:14.194Z,49.53
2023-03-12T17:33:45.244Z,49.81
2023-03-12T17:36:13.412Z,50.95
2023-03-12T17:38:41.567Z,52.07
2023-03-12T17:41:25.001Z,52.03
2023-03-12T17:43:54.953Z,52.89
2023-03-12T17:46:23.303Z,53.82
2023-03-12T17:48:51.523Z,54.11
2023-03-12T17:51:21.271Z,54.09
2023-03-12T17:53:50.117Z,54.75
2023-03-12T17:56:18.288Z,55.68
2023-03-12T17:58:47.786Z,55.76
2023-03-12T18:01:16.722Z,55.83
2023-03-12T18:03:44.993Z,56.17
2023-03-12T18:06:13.630Z,56.32
2023-03-12T18:08:41.718Z,56.54
2023-03-12T18:11:09.791Z,56.85
2023-03-12T18:13:40.454Z,56.65
2023-03-12T18:16:09.223Z,57.57
2023-03-12T18:18:37.431Z,57.80
2023-03-12T18:21:05.783Z,57.92
2023-03-12T18:23:34.048Z,58.45
2023-03-12T18:26:02.657Z,58.24
2023-03-12T18:28:30.763Z,58.72
2023-03-12T18:30:59.057Z,59.10
2023-03-12T18:33:27.272Z,58.89
2023-03-12T18:35:55.416Z,59.11
2023-03-12T18:38:23.700Z,58.48
2023-03-12T18:40:51.806Z,59.34
2023-03-12T18:43:21.816Z,59.49
2023-03-12T18:45:50.353Z,59.94
2023-03-12T18:48:18.539Z,60.06
2023-03-12T18:50:46.673Z,60.24
2023-03-12T18:53:14.841Z,60.33
2023-03-12T18:55:51.800Z,60.22
2023-03-12T18:58:20.240Z,60.35
2023-03-12T19:00:52.192Z,60.56
2023-03-12T19:03:21.730Z,60.95
2023-03-12T19:06:01.056Z,61.46
2023-03-12T19:08:29.875Z,62.02
2023-03-12T19:11:00.833Z,62.45
2023-03-12T19:13:29.005Z,63.34
2023-03-12T19:16:01.955Z,63.56
2023-03-12T19:18:30.371Z,63.25
2023-03-12T19:20:58.852Z,63.10
2023-03-12T19:23:26.938Z,63.42
2023-03-12T19:25:55.281Z,63.68
2023-03-12T19:28:24.013Z,63.43
2023-03-12T19:30:59.590Z,62.90
2023-03-12T19:33:28.641Z,62.91
2023-03-12T19:35:57.698Z,63.84
2023-03-12T19:38:26.822Z,62.94
2023-03-12T19:40:57.401Z,62.51
2023-03-12T19:43:26.570Z,62.41
2023-03-12T19:45:55.888Z,62.82
2023-03-12T19:48:27.380Z,62.49
2023-03-12T19:50:56.132Z,62.84
2023-03-12T19:53:24.967Z,63.34
2023-03-12T19:55:53.504Z,64.03
2023-03-12T19:58:21.719Z,63.88
2023-03-12T20:00:50.000Z,64.22
2023-03-12T20:03:18.152Z,64.20
2023-03-12T20:05:47.137Z,64.67
2023-03-12T20:08:15.345Z,64.83
2023-03-12T20:10:43.474Z,65.02
2023-03-12T20:13:13.565Z,64.92
2023-03-12T20:15:45.131Z,65.24
2023-03-12T20:18:14.725Z,65.14
2023-03-12T20:20:43.265Z,64.95
2023-03-12T20:23:11.352Z,65.26
2023-03-12T20:25:41.053Z,65.39
2023-03-12T20:28:10.955Z,66.00
2023-03-12T20:30:42.562Z,66.15
2023-03-12T20:33:10.713Z,66.93
2023-03-12T20:35:39.678Z,67.23
2023-03-12T20:38:08.516Z,67.95
2023-03-12T20:40:36.986Z,68.92
2023-03-12T20:43:05.324Z,69.00
2023-03-12T20:45:34.324Z,68.53
2023-03-12T20:48:02.620Z,68.47
2023-03-12T20:50:31.273Z,68.09
2023-03-12T20:52:59.750Z,68.49
2023-03-12T20:55:27.890Z,68.73
2023-03-12T20:57:56.141Z,69.11
2023-03-12T21:00:24.366Z,69.56
2023-03-12T21:02:52.786Z,68.93
2023-03-12T21:05:23.904Z,68.80
2023-03-12T21:07:54.046Z,69.38
2023-03-12T21:10:22.343Z,69.42
2023-03-12T21:12:50.571Z,69.93
2023-03-12T21:15:18.857Z,70.31
2023-03-12T21:17:47.146Z,69.48
2023-03-12T21:20:18.869Z,68.74
2023-03-12T21:22:47.563Z,68.72
2023-03-12T21:25:16.027Z,68.40
2023-03-12T21:27:51.154Z,68.52
2023-03-12T21:30:20.174Z,69.39
2023-03-12T21:32:48.378Z,69.44
2023-03-12T21:35:16.742Z,69.52
2023-03-12T21:37:44.856Z,69.64
2023-03-12T21:40:14.379Z,69.26
2023-03-12T21:42:42.835Z,69.47
2023-03-12T21:45:11.990Z,69.40
2023-03-12T21:47:41.527Z,69.83
2023-03-12T21:50:10.930Z,70.77
2023-03-12T21:52:43.037Z,70.54
2023-03-12T21:55:11.705Z,70.78
2023-03-12T21:57:39.846Z,70.35
2023-03-12T22:00:14.306Z,69.98
2023-03-12T22:02:44.356Z,69.88
2023-03-12T22:05:12.648Z,69.39
2023-03-12T22:07:40.963Z,68.65
2023-03-12T22:10:12.066Z,68.59
2023-03-12T22:12:41.055Z,68.33
2023-03-12T22:15:09.690Z,68.81
2023-03-12T22:17:37.941Z,69.09
2023-03-12T22:20:08.033Z,69.25
2023-03-12T22:22:36.348Z,69.08
2023-03-12T22:25:04.766Z,68.89
2023-03-12T22:27:32.872Z,68.88
2023-03-12T22:30:01.024Z,68.66
2023-03-12T22:32:29.151Z,68.76
2023-03-12T22:34:57.317Z,68.61
2023-03-12T22:37:25.415Z,68.68
2023-03-12T22:39:53.589Z,68.76
2023-03-12T22:42:21.744Z,68.49
2023-03-12T22:44:49.903Z,68.43
2023-03-12T22:47:18.007Z,68.51
2023-03-12T22:49:46.820Z,68.94
2023-03-12T22:52:14.983Z,69.00
2023-03-12T22:54:43.166Z,68.87
2023-03-12T22:57:11.341Z,68.18
2023-03-12T22:59:39.477Z,68.44
2023-03-12T23:02:07.674Z,68.63
2023-03-12T23:04:35.981Z,69.03
2023-03-12T23:07:13.698Z,69.13
2023-03-12T23:09:43.122Z,68.07
2023-03-12T23:12:11.274Z,68.73
2023-03-12T23:14:39.352Z,68.33
2023-03-12T23:17:09.388Z,68.26
2023-03-12T23:19:37.644Z,68.37
2023-03-12T23:22:06.938Z,68.12
2023-03-12T23:24:35.669Z,67.67
2023-03-12T23:27:04.772Z,68.04
2023-03-12T23:29:34.688Z,68.15
2023-03-12T23:32:02.886Z,68.47
2023-03-12T23:34:33.147Z,69.46
2023-03-12T23:37:01.633Z,69.70
2023-03-12T23:39:31.875Z,69.76
2023-03-12T23:42:00.311Z,70.26
2023-03-12T23:44:28.554Z,70.95
2023-03-12T23:46:56.675Z,70.82
2023-03-12T23:49:25.286Z,70.50
2023-03-12T23:51:53.422Z,70.29
2023-03-12T23:54:21.831Z,70.51
2023-03-12T23:56:50.085Z,70.57
2023-03-12T23:59:18.274Z,70.11
